Time;durP1;ratioP1;P1;durP2;ratioP2;P2;SDS_P1;SDS_P2;PMS_P1;PMS_P2;Temp;Humidity;BMP_temperature;BMP_pressure;BME280_temperature;BME280_humidity;BME280_pressure;Samples;Min_cycle;Max_cycle;Signal;HPM_P1;HPM_P2
2020/12/05 00:01:05;;;;;;;5.25;3.00;;;3.10;86.90;;;;;;5030975;28;20029;-80
2020/12/05 00:03:31;;;;;;;7.53;3.10;;;3.10;86.80;;;;;;5021567;28;20041;-80
2020/12/05 00:05:57;;;;;;;5.82;3.15;;;3.10;86.70;;;;;;5018073;28;20099;-80
2020/12/05 00:08:23;;;;;;;7.90;3.10;;;3.10;86.80;;;;;;5038265;28;20037;-82
2020/12/05 00:10:48;;;;;;;7.18;3.15;;;3.10;86.70;;;;;;5021790;28;20441;-82
2020/12/05 00:13:15;;;;;;;8.30;2.95;;;3.10;86.70;;;;;;5021934;28;20029;-82
2020/12/05 00:15:40;;;;;;;4.55;2.75;;;3.10;86.70;;;;;;5038216;28;20038;-83
2020/12/05 00:18:06;;;;;;;6.90;2.92;;;3.10;86.80;;;;;;5038215;28;20599;-80
2020/12/05 00:20:32;;;;;;;5.50;3.05;;;3.10;86.80;;;;;;5038028;28;20039;-81
2020/12/05 00:22:58;;;;;;;7.80;3.63;;;3.20;86.90;;;;;;5021959;28;20087;-80
2020/12/05 00:25:23;;;;;;;7.70;3.42;;;3.10;86.80;;;;;;5052106;28;21827;-80
2020/12/05 00:27:49;;;;;;;8.00;3.47;;;3.20;87.00;;;;;;5038095;28;20033;-81
2020/12/05 00:30:15;;;;;;;5.75;3.60;;;3.10;87.00;;;;;;5035267;28;20071;-81
2020/12/05 00:32:40;;;;;;;13.02;3.55;;;3.10;87.00;;;;;;5041780;28;20029;-80
2020/12/05 00:35:06;;;;;;;6.60;3.35;;;3.10;87.10;;;;;;5035507;28;20052;-80
2020/12/05 00:37:32;;;;;;;6.78;3.15;;;3.20;87.20;;;;;;5013908;28;20505;-80
2020/12/05 00:39:58;;;;;;;6.50;3.03;;;3.20;87.20;;;;;;5022938;28;20474;-80
2020/12/05 00:42:25;;;;;;;6.53;3.03;;;3.10;87.00;;;;;;5021287;28;20036;-80
2020/12/05 00:44:50;;;;;;;5.30;3.08;;;3.10;87.00;;;;;;5037644;28;20032;-80
2020/12/05 00:47:16;;;;;;;8.98;2.88;;;3.00;87.00;;;;;;5020973;28;20029;-80
2020/12/05 00:49:42;;;;;;;9.82;2.65;;;3.00;87.00;;;;;;5026189;28;20402;-81
2020/12/05 00:52:07;;;;;;;6.47;2.75;;;2.90;87.10;;;;;;5024582;28;20025;-80
2020/12/05 00:54:33;;;;;;;7.28;2.97;;;2.80;87.20;;;;;;5037103;28;20029;-81
2020/12/05 00:56:58;;;;;;;7.53;3.10;;;2.80;87.30;;;;;;5037511;28;20029;-81
2020/12/05 00:59:24;;;;;;;9.52;3.47;;;2.80;87.30;;;;;;5037368;28;20474;-81
2020/12/05 01:01:56;;;;;;;12.55;3.35;;;2.70;87.20;;;;;;5020799;28;20033;-80
2020/12/05 01:04:22;;;;;;;9.60;3.13;;;2.70;87.40;;;;;;5037133;28;20068;-81
2020/12/05 01:06:48;;;;;;;6.90;2.90;;;2.70;87.40;;;;;;5054476;28;20032;-80
2020/12/05 01:09:14;;;;;;;12.07;3.53;;;2.70;87.40;;;;;;5041856;28;20033;-81
2020/12/05 01:11:40;;;;;;;8.05;2.95;;;2.60;87.40;;;;;;5037581;28;20395;-81
2020/12/05 01:14:06;;;;;;;4.35;2.97;;;2.60;87.50;;;;;;5055448;28;20029;-80
2020/12/05 01:16:32;;;;;;;6.28;3.05;;;2.60;87.50;;;;;;5037086;28;20433;-78
2020/12/05 01:18:58;;;;;;;5.97;3.13;;;2.60;87.50;;;;;;5023916;28;20051;-78
2020/12/05 01:21:24;;;;;;;6.53;3.13;;;2.60;87.70;;;;;;5041852;28;20050;-79
2020/12/05 01:23:49;;;;;;;4.65;2.97;;;2.60;87.70;;;;;;5054141;28;20040;-78
2020/12/05 01:26:20;;;;;;;3.72;2.92;;;2.50;87.70;;;;;;5020235;28;20036;-79
2020/12/05 01:28:46;;;;;;;6.47;3.20;;;2.50;87.90;;;;;;5054461;28;20381;-78
2020/12/05 01:31:12;;;;;;;5.13;3.10;;;2.50;87.90;;;;;;5042105;28;20040;-78
2020/12/05 01:33:37;;;;;;;9.43;3.10;;;2.50;88.00;;;;;;5020769;28;20045;-79
2020/12/05 01:36:04;;;;;;;5.65;2.92;;;2.50;87.90;;;;;;5019833;28;20117;-79
2020/12/05 01:38:29;;;;;;;6.18;3.35;;;2.50;88.00;;;;;;5048177;28;20033;-78
2020/12/05 01:40:58;;;;;;;4.32;2.67;;;2.50;88.10;;;;;;5021406;28;20112;-79
2020/12/05 01:43:25;;;;;;;10.30;3.27;;;2.40;88.10;;;;;;5036566;28;20079;-79
2020/12/05 01:45:50;;;;;;;6.70;3.33;;;2.50;88.20;;;;;;5036374;28;20756;-78
2020/12/05 01:48:17;;;;;;;4.15;2.70;;;2.40;88.20;;;;;;5000445;28;20136;-79
2020/12/05 01:50:44;;;;;;;3.83;3.10;;;2.50;88.30;;;;;;5041878;28;20029;-79
2020/12/05 01:53:11;;;;;;;7.15;2.90;;;2.50;88.40;;;;;;5044170;28;20033;-79
2020/12/05 01:55:37;;;;;;;5.15;3.40;;;2.50;88.40;;;;;;5030302;28;20074;-78
2020/12/05 01:58:02;;;;;;;7.53;3.28;;;2.50;88.40;;;;;;5037954;28;20063;-78
2020/12/05 02:00:28;;;;;;;7.60;3.33;;;2.50;88.40;;;;;;5019567;28;20413;-78
2020/12/05 02:02:54;;;;;;;4.95;3.30;;;2.50;88.50;;;;;;5036095;28;20052;-78
2020/12/05 02:05:54;;;;;;;5.15;3.38;;;2.50;88.50;;;;;;5019565;28;20033;-79
2020/12/05 02:08:40;;;;;;;8.40;3.38;;;2.50;88.60;;;;;;5053605;28;20021;-78
2020/12/05 02:11:12;;;;;;;5.65;2.80;;;2.50;88.50;;;;;;5035786;28;20033;-79
2020/12/05 02:13:42;;;;;;;6.75;3.72;;;2.50;88.40;;;;;;5040631;28;20032;-79
2020/12/05 02:16:08;;;;;;;8.77;3.42;;;2.50;88.40;;;;;;5035830;28;20029;-79
2020/12/05 02:18:36;;;;;;;8.88;4.03;;;2.40;88.40;;;;;;5019315;28;20029;-78
2020/12/05 02:21:04;;;;;;;7.18;4.53;;;2.40;88.50;;;;;;5035773;28;20115;-78
2020/12/05 02:23:31;;;;;;;13.75;4.95;;;2.50;88.70;;;;;;5043466;28;20056;-78
2020/12/05 02:26:09;;;;;;;11.13;5.07;;;2.50;88.70;;;;;;5030476;28;20037;-78
2020/12/05 02:28:34;;;;;;;8.98;4.80;;;2.50;88.70;;;;;;5043370;28;20033;-79
2020/12/05 02:31:01;;;;;;;14.98;4.97;;;2.60;88.50;;;;;;5035615;28;20080;-78
2020/12/05 02:33:26;;;;;;;7.40;4.30;;;2.60;88.50;;;;;;5027225;28;20033;-79
2020/12/05 02:35:52;;;;;;;9.48;4.03;;;2.60;88.40;;;;;;5036388;28;20488;-79
2020/12/05 02:38:31;;;;;;;9.77;4.00;;;2.50;88.40;;;;;;5053083;28;20049;-78
2020/12/05 02:40:56;;;;;;;8.85;4.07;;;2.50;88.40;;;;;;5035430;28;20071;-78
2020/12/05 02:43:23;;;;;;;6.88;4.00;;;2.50;88.50;;;;;;5018875;28;20037;-78
2020/12/05 02:45:49;;;;;;;7.57;3.50;;;2.50;88.60;;;;;;5018448;28;20026;-78
2020/12/05 02:48:14;;;;;;;8.70;3.97;;;2.50;88.70;;;;;;5015616;28;20029;-78
2020/12/05 02:50:40;;;;;;;10.30;3.40;;;2.40;88.70;;;;;;5035241;28;20033;-79
2020/12/05 02:53:05;;;;;;;9.18;3.88;;;2.40;88.80;;;;;;5018721;28;20481;-79
2020/12/05 02:55:31;;;;;;;7.57;3.65;;;2.40;88.80;;;;;;5035224;28;20084;-78
2020/12/05 02:57:56;;;;;;;7.72;3.30;;;2.40;88.90;;;;;;5018753;28;20478;-78
2020/12/05 03:00:22;;;;;;;7.18;3.40;;;2.40;88.90;;;;;;5018749;28;20028;-78
2020/12/05 03:02:48;;;;;;;6.60;3.47;;;2.50;89.00;;;;;;5018765;28;20473;-78
2020/12/05 03:05:14;;;;;;;6.30;4.25;;;2.50;89.00;;;;;;5035191;28;20055;-79
2020/12/05 03:07:39;;;;;;;7.85;4.03;;;2.50;89.60;;;;;;5019491;28;20032;-78
2020/12/05 03:10:05;;;;;;;7.05;4.50;;;2.50;89.10;;;;;;5035082;28;20056;-79
2020/12/05 03:12:31;;;;;;;9.27;4.60;;;2.50;89.20;;;;;;5051757;28;20033;-79
2020/12/05 03:14:57;;;;;;;6.18;4.03;;;2.40;89.20;;;;;;5037153;28;20083;-80
2020/12/05 03:17:22;;;;;;;9.00;4.30;;;2.40;89.10;;;;;;5018464;28;20033;-80
2020/12/05 03:19:48;;;;;;;9.20;5.10;;;2.40;89.20;;;;;;5052652;28;20037;-80
2020/12/05 03:22:13;;;;;;;10.55;5.32;;;2.40;89.10;;;;;;5018546;28;20478;-80
2020/12/05 03:24:39;;;;;;;11.48;4.60;;;2.40;89.00;;;;;;5018323;28;20081;-79
2020/12/05 03:27:04;;;;;;;8.23;4.35;;;2.40;89.10;;;;;;5018585;28;20063;-80
2020/12/05 03:29:30;;;;;;;8.82;4.22;;;2.40;89.20;;;;;;5035012;28;20029;-80
2020/12/05 03:32:00;;;;;;;7.65;4.15;;;2.30;89.20;;;;;;5034936;28;20029;-80
2020/12/05 03:34:26;;;;;;;7.32;3.83;;;2.30;89.20;;;;;;5041141;28;20363;-80
2020/12/05 03:36:51;;;;;;;8.18;4.03;;;2.30;89.20;;;;;;5034673;28;20056;-80
2020/12/05 03:39:17;;;;;;;8.57;4.20;;;2.30;89.30;;;;;;5024189;28;20049;-80
2020/12/05 03:41:43;;;;;;;6.40;3.72;;;2.30;89.30;;;;;;5018339;28;20029;-80
2020/12/05 03:44:09;;;;;;;9.65;3.80;;;2.20;89.20;;;;;;5034696;28;20029;-80
2020/12/05 03:46:35;;;;;;;5.60;4.05;;;2.20;89.20;;;;;;5034687;28;20063;-80
2020/12/05 03:49:01;;;;;;;5.90;3.58;;;2.20;89.20;;;;;;5018288;28;20037;-80
2020/12/05 03:51:27;;;;;;;9.45;3.80;;;2.10;89.20;;;;;;5052577;28;20033;-80
2020/12/05 03:53:53;;;;;;;6.95;3.92;;;2.10;89.20;;;;;;5034642;28;20456;-80
2020/12/05 03:56:19;;;;;;;8.15;4.10;;;2.10;89.20;;;;;;5018110;28;20029;-80
2020/12/05 03:58:44;;;;;;;5.47;3.88;;;2.10;89.10;;;;;;5014902;28;20034;-80
2020/12/05 04:01:10;;;;;;;5.68;3.38;;;2.00;89.10;;;;;;5014854;28;20396;-80
2020/12/05 04:03:35;;;;;;;6.63;3.75;;;1.90;88.90;;;;;;5034245;28;20036;-79
2020/12/05 04:06:02;;;;;;;7.70;3.97;;;1.90;89.00;;;;;;5029244;28;20033;-80
2020/12/05 04:08:28;;;;;;;7.57;4.03;;;1.90;89.10;;;;;;5032378;28;20483;-80
2020/12/05 04:10:54;;;;;;;8.43;4.00;;;1.80;89.20;;;;;;5018013;28;20382;-80
2020/12/05 04:13:20;;;;;;;7.60;4.10;;;1.80;89.20;;;;;;5021461;28;20060;-80
2020/12/05 04:15:45;;;;;;;6.22;3.95;;;1.80;89.20;;;;;;5023800;28;20048;-80
2020/12/05 04:18:11;;;;;;;6.90;3.63;;;1.80;89.20;;;;;;5038014;28;20413;-79
2020/12/05 04:20:36;;;;;;;7.32;4.13;;;1.80;89.90;;;;;;5038187;28;20052;-80
2020/12/05 04:23:02;;;;;;;6.68;3.70;;;1.80;89.20;;;;;;5019529;28;20397;-80
2020/12/05 04:25:28;;;;;;;5.03;3.88;;;1.80;89.20;;;;;;5037961;28;20021;-80
2020/12/05 04:27:53;;;;;;;7.05;4.00;;;1.80;89.20;;;;;;5018048;28;20432;-80
2020/12/05 04:30:20;;;;;;;7.57;4.20;;;1.80;89.20;;;;;;5037733;28;20041;-80
2020/12/05 04:32:45;;;;;;;7.03;3.85;;;1.80;89.20;;;;;;5055556;28;20584;-80
2020/12/05 04:35:11;;;;;;;8.85;4.43;;;1.80;89.30;;;;;;5055442;28;20053;-79
2020/12/05 04:37:37;;;;;;;15.00;4.95;;;1.70;89.20;;;;;;5037562;28;20517;-80
2020/12/05 04:40:04;;;;;;;8.35;4.43;;;1.80;89.20;;;;;;5017894;28;20067;-80
2020/12/05 04:42:30;;;;;;;7.90;3.90;;;1.80;89.20;;;;;;5034399;28;20025;-80
2020/12/05 04:44:56;;;;;;;7.68;5.03;;;1.80;89.30;;;;;;5037281;28;20031;-80
2020/12/05 04:47:24;;;;;;;7.57;4.60;;;1.70;89.30;;;;;;5021117;28;20033;-79
2020/12/05 04:49:55;;;;;;;8.63;4.78;;;1.80;89.40;;;;;;5037824;28;20428;-79
2020/12/05 04:52:26;;;;;;;7.82;4.20;;;1.80;89.40;;;;;;5037461;28;20032;-80
2020/12/05 04:54:53;;;;;;;6.35;4.68;;;1.70;89.40;;;;;;5020048;28;20041;-80
2020/12/05 04:57:24;;;;;;;9.57;5.20;;;1.70;89.50;;;;;;5037522;28;20068;-80
2020/12/05 04:59:51;;;;;;;9.25;5.40;;;1.70;89.40;;;;;;5037277;28;20032;-79
2020/12/05 05:02:20;;;;;;;10.13;4.95;;;1.70;89.40;;;;;;5037261;28;20048;-80
2020/12/05 05:04:47;;;;;;;9.90;5.32;;;1.70;89.50;;;;;;5054996;28;20420;-80
2020/12/05 05:07:15;;;;;;;8.68;5.15;;;1.70;89.60;;;;;;5020506;28;20036;-79
2020/12/05 05:09:49;;;;;;;11.18;5.60;;;1.70;89.70;;;;;;5037085;28;20050;-80
2020/12/05 05:12:30;;;;;;;8.50;5.45;;;1.70;90.20;;;;;;5036974;28;20036;-80
2020/12/05 05:14:56;;;;;;;8.75;5.50;;;1.70;89.90;;;;;;5036953;28;20115;-80
2020/12/05 05:17:22;;;;;;;11.07;5.63;;;1.60;89.80;;;;;;5038332;28;20155;-79
2020/12/05 05:19:47;;;;;;;9.18;5.75;;;1.60;89.80;;;;;;5054943;28;20028;-80
2020/12/05 05:22:20;;;;;;;10.30;5.30;;;1.60;89.90;;;;;;5037025;28;20017;-80
2020/12/05 05:25:06;;;;;;;8.43;5.38;;;1.60;90.00;;;;;;5029424;28;20037;-80
2020/12/05 05:27:32;;;;;;;8.80;5.55;;;1.60;90.00;;;;;;5026131;28;20059;-79
2020/12/05 05:30:14;;;;;;;9.25;5.50;;;1.60;89.90;;;;;;5036716;28;20060;-80
2020/12/05 05:32:44;;;;;;;8.68;5.28;;;1.60;90.00;;;;;;5036588;28;20079;-80
2020/12/05 05:35:14;;;;;;;8.55;5.53;;;1.60;90.00;;;;;;5021556;28;20034;-80
2020/12/05 05:37:41;;;;;;;9.80;5.35;;;1.60;90.00;;;;;;5048247;28;20049;-80
2020/12/05 05:40:09;;;;;;;9.68;5.03;;;1.50;90.00;;;;;;5021541;28;20056;-80
2020/12/05 05:42:44;;;;;;;10.98;5.20;;;1.50;90.00;;;;;;5027117;28;20017;-80
2020/12/05 05:45:22;;;;;;;10.80;5.85;;;1.50;90.00;;;;;;5020038;28;20114;-80
2020/12/05 05:47:50;;;;;;;10.02;5.50;;;1.50;90.00;;;;;;5039670;28;20377;-80
2020/12/05 05:50:22;;;;;;;7.25;4.93;;;1.50;90.00;;;;;;5040515;28;20029;-80
2020/12/05 05:52:58;;;;;;;10.35;5.57;;;1.50;90.00;;;;;;5016528;28;20077;-80
2020/12/05 05:55:39;;;;;;;14.65;5.65;;;1.50;90.30;;;;;;5032699;28;20025;-80
2020/12/05 05:58:05;;;;;;;8.90;5.35;;;1.40;90.00;;;;;;5035983;28;20381;-80
2020/12/05 06:00:40;;;;;;;8.20;5.30;;;1.40;90.00;;;;;;5034479;28;20061;-80
2020/12/05 06:03:27;;;;;;;11.85;5.43;;;1.40;90.00;;;;;;5036378;28;20036;-80
2020/12/05 06:05:54;;;;;;;10.10;5.25;;;1.40;90.00;;;;;;5050757;28;20086;-80
2020/12/05 06:08:29;;;;;;;11.45;5.30;;;1.40;90.00;;;;;;5053088;28;20128;-80
2020/12/05 06:11:11;;;;;;;9.95;5.55;;;1.40;90.00;;;;;;5045783;28;20123;-80
2020/12/05 06:13:36;;;;;;;10.93;6.47;;;1.40;90.10;;;;;;5045356;28;20029;-79
2020/12/05 06:16:03;;;;;;;10.13;5.97;;;1.40;90.00;;;;;;5053504;28;20033;-80
2020/12/05 06:18:30;;;;;;;11.38;5.72;;;1.50;90.00;;;;;;5035470;28;20108;-80
2020/12/05 06:20:56;;;;;;;9.48;5.88;;;1.50;90.00;;;;;;5058576;28;20020;-80
2020/12/05 06:23:55;;;;;;;11.00;5.80;;;1.50;90.00;;;;;;5053261;28;20405;-80
2020/12/05 06:26:27;;;;;;;;;;;1.50;90.10;;;;;;5053580;28;20025;-79
2020/12/05 06:28:53;;;;;;;10.68;5.40;;;1.50;90.00;;;;;;5035628;28;20063;-80
2020/12/05 06:31:39;;;;;;;9.45;5.60;;;1.50;90.00;;;;;;5039836;28;20025;-80
2020/12/05 06:34:05;;;;;;;9.95;5.85;;;1.50;90.10;;;;;;5030393;28;20075;-79
2020/12/05 06:36:31;;;;;;;7.07;4.82;;;1.50;90.00;;;;;;5023079;28;20045;-80
2020/12/05 06:39:18;;;;;;;13.07;5.63;;;1.50;90.10;;;;;;5034631;28;20025;-79
2020/12/05 06:41:50;;;;;;;8.93;5.60;;;1.50;90.10;;;;;;5035023;28;20093;-80
2020/12/05 06:44:17;;;;;;;8.57;5.75;;;1.50;90.10;;;;;;5035298;28;20035;-81
2020/12/05 06:47:01;;;;;;;9.50;5.68;;;1.50;90.30;;;;;;5034765;28;20127;-80
2020/12/05 06:49:38;;;;;;;11.63;5.18;;;1.50;90.10;;;;;;5031065;28;20403;-80
2020/12/05 06:52:22;;;;;;;11.35;5.43;;;1.50;90.10;;;;;;5035342;28;20121;-80
2020/12/05 06:54:51;;;;;;;12.05;6.18;;;1.60;90.20;;;;;;5052984;28;20029;-80
2020/12/05 06:57:16;;;;;;;9.47;5.87;;;1.60;90.10;;;;;;5052904;28;20497;-80
2020/12/05 06:59:42;;;;;;;7.18;4.80;;;1.60;90.10;;;;;;5021030;28;20059;-80
2020/12/05 07:02:29;;;;;;;12.38;5.80;;;1.60;90.20;;;;;;5035213;28;20086;-80
2020/12/05 07:05:20;;;;;;;8.38;5.28;;;1.60;90.20;;;;;;5043817;28;20448;-80
2020/12/05 07:07:46;;;;;;;9.55;5.35;;;1.60;90.20;;;;;;5033157;28;20025;-79
2020/12/05 07:10:12;;;;;;;9.57;6.35;;;1.70;90.20;;;;;;5027653;28;20029;-80
2020/12/05 07:12:41;;;;;;;11.50;6.28;;;1.70;90.20;;;;;;5052448;28;20386;-80
2020/12/05 07:15:27;;;;;;;9.77;5.93;;;1.70;90.20;;;;;;5034921;28;20071;-80
2020/12/05 07:17:57;;;;;;;14.00;6.70;;;1.80;90.30;;;;;;5035904;28;20071;-80
2020/12/05 07:20:23;;;;;;;9.15;5.90;;;1.80;90.20;;;;;;5035083;28;20140;-79
2020/12/05 07:22:51;;;;;;;15.23;7.22;;;1.90;90.20;;;;;;5018433;28;20025;-79
2020/12/05 07:25:17;;;;;;;11.07;7.20;;;1.90;90.20;;;;;;5052306;28;20031;-80
2020/12/05 07:27:43;;;;;;;9.10;6.15;;;2.00;90.30;;;;;;5034920;28;20100;-80
2020/12/05 07:30:09;;;;;;;9.75;6.20;;;2.00;90.30;;;;;;5034789;28;20037;-80
2020/12/05 07:32:37;;;;;;;9.80;6.55;;;2.00;90.30;;;;;;5034558;28;20033;-80
2020/12/05 07:35:06;;;;;;;9.50;6.32;;;2.10;90.40;;;;;;5038020;28;20025;-80
2020/12/05 07:37:34;;;;;;;8.68;5.28;;;2.10;90.40;;;;;;5052324;28;20037;-80
2020/12/05 07:40:00;;;;;;;10.18;6.50;;;2.10;90.40;;;;;;5052378;28;20033;-80
2020/12/05 07:42:33;;;;;;;10.45;7.30;;;2.20;90.40;;;;;;5014930;28;20029;-80
2020/12/05 07:45:16;;;;;;;9.73;6.80;;;2.20;90.40;;;;;;5024747;28;20033;-79
2020/12/05 07:47:42;;;;;;;16.88;8.20;;;2.20;90.50;;;;;;5035020;28;20308;-80
2020/12/05 07:50:10;;;;;;;13.50;7.78;;;2.30;90.50;;;;;;5016312;28;20086;-82
2020/12/05 07:52:39;;;;;;;11.82;8.13;;;2.30;90.80;;;;;;5018912;28;20074;-81
2020/12/05 07:55:06;;;;;;;12.43;7.20;;;2.30;90.60;;;;;;5010782;28;20029;-81
2020/12/05 07:57:34;;;;;;;13.57;7.93;;;2.30;90.60;;;;;;5050885;28;20496;-81
2020/12/05 08:00:13;;;;;;;12.15;7.93;;;2.30;90.60;;;;;;5054875;28;20029;-81
2020/12/05 08:02:51;;;;;;;;;;;2.40;90.70;;;;;;5042914;28;20020;-81
2020/12/05 08:05:26;;;;;;;15.77;8.40;;;2.40;90.60;;;;;;5029718;28;20301;-80
2020/12/05 08:08:03;;;;;;;17.85;9.00;;;2.50;90.50;;;;;;5038071;28;20110;-80
2020/12/05 08:10:32;;;;;;;22.92;10.77;;;2.50;90.50;;;;;;5026388;28;20104;-80
2020/12/05 08:13:19;;;;;;;18.27;9.90;;;2.60;90.50;;;;;;5052684;28;20064;-80
2020/12/05 08:16:08;;;;;;;20.98;10.20;;;2.60;90.60;;;;;;5026360;28;20076;-81
2020/12/05 08:18:35;;;;;;;21.27;9.82;;;2.70;90.60;;;;;;5048929;28;20374;-80
2020/12/05 08:21:03;;;;;;;16.30;8.98;;;2.70;90.60;;;;;;5055071;28;20024;-80
2020/12/05 08:23:31;;;;;;;15.77;9.68;;;2.70;90.60;;;;;;5021722;28;20036;-81
2020/12/05 08:26:15;;;;;;;12.60;7.90;;;2.70;90.70;;;;;;5055922;28;20466;-80
2020/12/05 08:28:43;;;;;;;14.57;7.55;;;2.80;90.70;;;;;;5038056;28;20341;-81
2020/12/05 08:31:10;;;;;;;14.43;8.52;;;2.90;90.60;;;;;;5021429;28;20044;-80
2020/12/05 08:33:50;;;;;;;10.77;7.10;;;2.90;90.60;;;;;;5037513;28;20029;-80
2020/12/05 08:36:22;;;;;;;14.85;7.13;;;2.90;90.60;;;;;;5035455;28;20025;-81
2020/12/05 08:38:48;;;;;;;14.10;8.10;;;3.00;90.60;;;;;;5037682;28;20090;-80
2020/12/05 08:41:14;;;;;;;12.15;7.63;;;3.00;90.60;;;;;;5055430;28;20025;-80
2020/12/05 08:43:40;;;;;;;11.32;6.90;;;3.00;90.50;;;;;;5037448;28;20071;-80
2020/12/05 08:46:17;;;;;;;12.50;7.10;;;3.00;90.50;;;;;;5036931;28;20424;-80
2020/12/05 08:48:42;;;;;;;12.15;7.28;;;3.10;90.60;;;;;;5029596;28;20028;-81
2020/12/05 08:51:08;;;;;;;10.00;6.93;;;3.20;90.50;;;;;;5045506;28;20432;-80
2020/12/05 08:53:34;;;;;;;9.18;6.22;;;3.20;90.50;;;;;;5037362;28;20036;-81
2020/12/05 08:56:01;;;;;;;9.77;6.57;;;3.20;90.50;;;;;;5020795;28;20036;-80
2020/12/05 08:58:42;;;;;;;10.20;6.90;;;3.30;90.50;;;;;;5037308;28;20390;-81
2020/12/05 09:01:07;;;;;;;8.85;6.22;;;3.30;90.50;;;;;;5052358;28;20035;-81
2020/12/05 09:03:37;;;;;;;9.18;6.60;;;3.40;90.50;;;;;;5020521;28;20120;-81
2020/12/05 09:06:03;;;;;;;10.80;6.13;;;3.50;90.50;;;;;;5041022;28;20099;-81
2020/12/05 09:08:29;;;;;;;9.88;5.95;;;3.50;90.40;;;;;;5037233;28;20477;-81
2020/12/05 09:10:54;;;;;;;9.02;6.28;;;3.60;90.40;;;;;;5020868;28;20083;-81
2020/12/05 09:13:20;;;;;;;8.38;5.85;;;3.60;90.30;;;;;;5020358;28;20033;-81
2020/12/05 09:15:59;;;;;;;8.32;6.20;;;3.70;90.30;;;;;;5054977;28;20032;-81
2020/12/05 09:18:25;;;;;;;9.10;5.78;;;3.80;90.30;;;;;;5046072;28;20428;-81
2020/12/05 09:20:51;;;;;;;11.50;5.85;;;3.80;90.20;;;;;;5028007;28;20033;-81
2020/12/05 09:23:27;;;;;;;9.82;5.97;;;3.90;90.20;;;;;;5019798;28;20028;-81
2020/12/05 09:26:00;;;;;;;8.82;6.22;;;4.00;90.10;;;;;;5034549;28;20104;-81
2020/12/05 09:28:26;;;;;;;9.35;5.75;;;4.10;90.00;;;;;;5036365;28;20029;-81
2020/12/05 09:30:51;;;;;;;6.75;5.28;;;4.20;89.90;;;;;;5050943;28;20041;-82
2020/12/05 09:33:17;;;;;;;7.20;4.85;;;4.30;89.70;;;;;;5027931;28;20051;-81
2020/12/05 09:35:44;;;;;;;5.70;4.78;;;4.40;89.60;;;;;;5017322;28;20084;-81
2020/12/05 09:38:10;;;;;;;5.78;4.90;;;4.40;89.40;;;;;;4999347;28;20057;-81
2020/12/05 09:40:36;;;;;;;6.55;5.05;;;4.50;89.30;;;;;;4993858;28;20034;-80
2020/12/05 09:43:02;;;;;;;7.93;4.75;;;4.50;89.20;;;;;;5003048;28;20391;-81
2020/12/05 09:45:28;;;;;;;7.93;4.38;;;4.50;89.10;;;;;;5013052;28;20088;-80
2020/12/05 09:47:54;;;;;;;6.80;4.93;;;4.60;89.10;;;;;;4997112;28;20121;-81
2020/12/05 09:50:20;;;;;;;7.60;5.18;;;4.70;88.90;;;;;;4997165;28;20129;-81
2020/12/05 09:52:46;;;;;;;6.70;5.00;;;4.80;88.80;;;;;;5013338;28;20032;-82
2020/12/05 09:55:12;;;;;;;5.10;4.20;;;4.80;88.50;;;;;;4993388;28;20030;-81
2020/12/05 09:57:38;;;;;;;7.15;4.40;;;4.90;88.40;;;;;;5010283;28;20542;-82
2020/12/05 10:00:08;;;;;;;9.45;5.10;;;4.90;88.10;;;;;;5012908;28;20030;-83
2020/12/05 10:02:33;;;;;;;;;;;5.00;88.00;;;;;;5012280;28;21120;-83
2020/12/05 10:04:59;;;;;;;5.93;4.00;;;5.00;87.70;;;;;;5005031;28;19928;-83
2020/12/05 10:07:24;;;;;;;6.05;4.13;;;5.10;87.80;;;;;;5014223;28;20065;-82
2020/12/05 10:09:50;;;;;;;7.75;5.05;;;5.10;87.50;;;;;;5016784;28;20470;-80
2020/12/05 10:12:16;;;;;;;5.18;3.80;;;5.10;87.20;;;;;;4995919;28;20034;-80
2020/12/05 10:14:41;;;;;;;6.60;3.63;;;5.20;87.20;;;;;;5012345;28;20080;-80
2020/12/05 10:17:07;;;;;;;5.10;3.33;;;5.20;87.00;;;;;;4996233;28;20033;-80
2020/12/05 10:19:32;;;;;;;4.43;3.10;;;5.30;86.90;;;;;;5013273;28;20034;-80
2020/12/05 10:21:58;;;;;;;3.83;3.03;;;5.30;86.80;;;;;;5014447;28;20483;-79
2020/12/05 10:24:24;;;;;;;3.55;3.08;;;5.40;86.70;;;;;;5007542;28;20068;-80
2020/12/05 10:26:52;;;;;;;4.30;2.63;;;5.40;86.50;;;;;;4996182;28;20026;-81
2020/12/05 10:29:18;;;;;;;3.67;2.80;;;5.40;87.00;;;;;;5001681;28;20037;-81
2020/12/05 10:31:45;;;;;;;4.13;2.75;;;5.40;86.20;;;;;;4992541;28;20030;-80
2020/12/05 10:34:11;;;;;;;2.83;2.25;;;5.50;85.90;;;;;;4995853;28;20060;-80
2020/12/05 10:36:37;;;;;;;2.65;2.30;;;5.50;85.60;;;;;;5012830;28;20037;-80
2020/12/05 10:39:04;;;;;;;4.25;2.38;;;5.50;85.50;;;;;;5012551;28;20030;-80
2020/12/05 10:41:30;;;;;;;3.45;2.70;;;5.60;85.20;;;;;;4996386;28;20379;-80
2020/12/05 10:43:56;;;;;;;2.80;2.05;;;5.60;85.00;;;;;;5012458;28;20114;-80
2020/12/05 10:46:21;;;;;;;2.85;2.10;;;5.70;84.80;;;;;;4996307;28;20034;-85
2020/12/05 10:48:47;;;;;;;5.03;2.17;;;5.70;84.90;;;;;;5012755;28;20034;-85
2020/12/05 10:51:12;;;;;;;3.42;2.55;;;5.70;84.60;;;;;;4996911;28;20026;-85
2020/12/05 10:53:38;;;;;;;4.22;2.00;;;5.70;85.10;;;;;;5012237;28;20034;-86
2020/12/05 10:56:04;;;;;;;2.30;1.90;;;5.80;84.30;;;;;;4996679;28;20065;-86
2020/12/05 10:58:29;;;;;;;3.63;2.05;;;5.80;84.00;;;;;;4993647;28;20058;-87
2020/12/05 11:00:55;;;;;;;20.15;2.33;;;5.90;83.90;;;;;;5008988;28;20030;-87
2020/12/05 11:03:20;;;;;;;14.30;2.15;;;5.90;84.00;;;;;;4996529;28;20061;-85
2020/12/05 11:05:46;;;;;;;6.20;2.10;;;5.90;83.70;;;;;;4992705;28;20506;-84
2020/12/05 11:08:11;;;;;;;2.42;1.63;;;6.00;83.40;;;;;;4993109;28;20121;-83
2020/12/05 11:10:37;;;;;;;5.60;1.73;;;6.00;82.90;;;;;;4995072;28;20549;-83
2020/12/05 11:13:03;;;;;;;7.03;1.50;;;6.10;82.80;;;;;;4989431;28;20037;-83
2020/12/05 11:15:28;;;;;;;3.30;1.65;;;6.10;82.30;;;;;;5010473;28;20064;-84
2020/12/05 11:17:54;;;;;;;4.05;1.55;;;6.10;82.80;;;;;;4992449;28;20029;-83
2020/12/05 11:20:21;;;;;;;2.80;1.50;;;6.20;82.80;;;;;;4992946;28;20027;-83
2020/12/05 11:22:47;;;;;;;1.70;1.50;;;6.30;82.20;;;;;;5012287;28;20141;-84
2020/12/05 11:25:13;;;;;;;3.50;1.42;;;6.30;81.50;;;;;;4995019;28;20062;-85
2020/12/05 11:27:39;;;;;;;3.75;1.10;;;6.40;81.30;;;;;;5015273;28;20113;-84
2020/12/05 11:30:04;;;;;;;2.47;1.00;;;6.30;80.20;;;;;;5016442;28;20439;-85
2020/12/05 11:32:30;;;;;;;3.38;0.90;;;6.40;79.90;;;;;;5000448;28;20034;-85
2020/12/05 11:34:55;;;;;;;2.92;1.10;;;6.40;79.50;;;;;;5000084;28;20415;-86
2020/12/05 11:37:21;;;;;;;2.13;1.08;;;6.60;79.00;;;;;;4999669;28;20042;-85
2020/12/05 11:39:47;;;;;;;2.50;1.20;;;7.40;74.90;;;;;;4999675;28;20120;-85
2020/12/05 11:42:12;;;;;;;1.67;0.90;;;8.20;71.20;;;;;;5027154;28;20092;-85
2020/12/05 11:44:38;;;;;;;4.10;0.90;;;8.70;68.50;;;;;;4991591;28;20026;-85
2020/12/05 11:47:03;;;;;;;2.95;1.02;;;9.00;67.00;;;;;;4999496;28;20060;-84
2020/12/05 11:49:29;;;;;;;2.70;1.10;;;9.00;66.70;;;;;;4999411;28;20030;-85
2020/12/05 11:51:57;;;;;;;2.30;0.70;;;9.10;65.90;;;;;;5012053;28;20037;-85
2020/12/05 11:54:23;;;;;;;3.78;0.95;;;9.30;65.50;;;;;;5015898;28;20430;-85
2020/12/05 11:56:49;;;;;;;2.03;1.00;;;9.40;64.00;;;;;;5013220;28;20030;-85
2020/12/05 11:59:15;;;;;;;1.55;0.82;;;9.60;62.50;;;;;;5014466;28;20081;-85
2020/12/05 12:01:41;;;;;;;6.05;1.00;;;9.90;60.90;;;;;;4994200;28;20080;-86
2020/12/05 12:04:07;;;;;;;1.48;0.77;;;10.20;60.60;;;;;;5012057;28;20022;-84
2020/12/05 12:06:35;;;;;;;3.03;0.80;;;10.40;60.60;;;;;;5015664;28;20038;-84
2020/12/05 12:09:01;;;;;;;4.25;0.98;;;10.60;59.60;;;;;;4995920;28;20495;-83
2020/12/05 12:11:27;;;;;;;2.20;0.73;;;10.80;58.70;;;;;;4992693;28;20129;-84
2020/12/05 12:13:52;;;;;;;2.08;0.60;;;11.00;58.20;;;;;;4998381;28;20034;-83
2020/12/05 12:16:18;;;;;;;2.70;0.65;;;11.20;58.10;;;;;;5016469;28;20048;-87
2020/12/05 12:18:45;;;;;;;2.38;1.00;;;11.40;57.20;;;;;;5032882;28;20030;-87
2020/12/05 12:21:11;;;;;;;4.70;1.02;;;11.40;57.30;;;;;;5016384;28;20088;-88
2020/12/05 12:23:37;;;;;;;1.75;0.70;;;11.40;57.50;;;;;;5016143;28;20464;-87
2020/12/05 12:26:02;;;;;;;1.55;0.70;;;11.60;57.20;;;;;;5017518;28;20080;-87
2020/12/05 12:28:28;;;;;;;2.85;0.60;;;11.50;57.20;;;;;;5005769;28;20033;-82
2020/12/05 12:30:54;;;;;;;5.20;0.80;;;11.10;58.80;;;;;;5014432;28;20037;-82
2020/12/05 12:33:19;;;;;;;2.10;0.60;;;10.70;60.40;;;;;;5016191;28;20080;-82
2020/12/05 12:35:46;;;;;;;2.83;0.95;;;10.30;61.50;;;;;;5017913;28;20034;-82
2020/12/05 12:38:12;;;;;;;2.28;0.57;;;10.00;62.20;;;;;;5071758;28;20045;-82
2020/12/05 12:40:38;;;;;;;4.80;0.93;;;9.60;63.60;;;;;;5022077;28;20029;-88
2020/12/05 12:43:04;;;;;;;2.55;0.60;;;9.30;64.80;;;;;;5038899;28;20484;-87
2020/12/05 12:45:31;;;;;;;3.08;0.70;;;9.20;64.90;;;;;;5038337;28;20115;-83
2020/12/05 12:50:36;;;;;;;0.95;0.70;;;9.10;64.40;;;;;;5055102;28;20061;-82
2020/12/05 12:53:02;;;;;;;2.58;0.73;;;9.00;64.10;;;;;;5043898;28;20389;-83
2020/12/05 12:55:27;;;;;;;2.47;0.70;;;8.60;65.70;;;;;;5020734;28;20047;-83
2020/12/05 12:57:57;;;;;;;4.20;0.80;;;8.20;67.20;;;;;;5025730;28;20037;-82
2020/12/05 13:00:23;;;;;;;1.75;0.80;;;8.00;68.60;;;;;;5017263;28;20030;-83
2020/12/05 13:02:49;;;;;;;1.67;0.73;;;7.70;69.40;;;;;;5020140;28;20136;-83